createdAt,value
2023-02-16T00:00:43.291Z,90.43
2023-02-16T00:03:30.726Z,102.30
2023-02-16T00:05:58.933Z,116.97
2023-02-16T00:08:26.683Z,127.37
2023-02-16T00:11:12.979Z,127.70
2023-02-16T00:13:48.227Z,105.37
2023-02-16T00:16:22.251Z,105.67
2023-02-16T00:18:50.781Z,95.63
2023-02-16T00:21:19.195Z,103.10
2023-02-16T00:23:49.876Z,101.67
2023-02-16T00:26:21.237Z,95.67
2023-02-16T00:28:55.327Z,95.13
2023-02-16T00:31:27.607Z,101.23
2023-02-16T00:33:56.120Z,91.37
2023-02-16T00:36:24.363Z,89.33
2023-02-16T00:38:52.347Z,90.53
2023-02-16T00:41:42.027Z,85.33
2023-02-16T00:44:19.866Z,88.47
2023-02-16T00:46:48.431Z,86.80
2023-02-16T00:49:18.453Z,129.87
2023-02-16T00:51:46.539Z,207.40
2023-02-16T00:54:14.690Z,308.20
2023-02-16T00:56:45.509Z,278.73
2023-02-16T00:59:21.062Z,134.50
2023-02-16T01:01:49.876Z,91.97
2023-02-16T01:04:24.012Z,92.90
2023-02-16T01:07:10.261Z,106.33
2023-02-16T01:09:56.572Z,106.10
2023-02-16T01:12:24.601Z,103.90
2023-02-16T01:14:54.674Z,114.40
2023-02-16T01:17:25.445Z,124.43
2023-02-16T01:19:56.136Z,115.57
2023-02-16T01:22:23.915Z,103.47
2023-02-16T01:24:51.594Z,97.17
2023-02-16T01:27:19.307Z,106.57
2023-02-16T01:29:46.738Z,108.10
2023-02-16T01:32:16.871Z,110.43
2023-02-16T01:34:44.376Z,104.90
2023-02-16T01:37:16.618Z,110.87
2023-02-16T01:39:45.068Z,111.40
2023-02-16T01:42:29.789Z,114.90
2023-02-16T01:45:04.527Z,112.90
2023-02-16T01:47:44.671Z,111.60
2023-02-16T01:50:23.296Z,104.27
2023-02-16T01:53:12.192Z,110.83
2023-02-16T01:55:45.238Z,115.07
2023-02-16T01:58:27.364Z,119.90
2023-02-16T02:00:57.261Z,107.70
2023-02-16T02:03:48.307Z,146.90
2023-02-16T02:06:21.089Z,126.67
2023-02-16T02:09:02.473Z,118.57
2023-02-16T02:11:54.506Z,116.17
2023-02-16T02:14:29.533Z,109.47
2023-02-16T02:17:04.483Z,106.80
2023-02-16T02:19:51.229Z,104.83
2023-02-16T02:22:52.406Z,99.53
2023-02-16T02:25:41.826Z,101.97
2023-02-16T02:28:31.610Z,100.83
2023-02-16T02:31:15.499Z,97.60
2023-02-16T02:34:13.006Z,109.97
2023-02-16T02:36:51.469Z,109.10
2023-02-16T02:39:35.695Z,98.47
2023-02-16T02:42:30.135Z,99.63
2023-02-16T02:45:42.602Z,98.77
2023-02-16T02:48:10.325Z,99.60
2023-02-16T02:51:26.416Z,96.67
2023-02-16T02:54:14.800Z,94.33
2023-02-16T02:57:07.795Z,92.17
2023-02-16T03:00:16.067Z,94.03
2023-02-16T03:02:48.627Z,92.23
2023-02-16T03:05:20.377Z,88.07
2023-02-16T03:07:50.600Z,96.30
2023-02-16T03:10:46.118Z,96.60
2023-02-16T03:13:20.989Z,100.93
2023-02-16T03:15:50.097Z,107.63
2023-02-16T03:18:36.404Z,91.53
2023-02-16T03:21:23.532Z,96.27
2023-02-16T03:24:10.298Z,93.77
2023-02-16T03:26:56.968Z,104.90
2023-02-16T03:29:26.602Z,112.57
2023-02-16T03:31:56.732Z,120.37
2023-02-16T03:34:25.472Z,120.47
2023-02-16T03:36:58.700Z,125.13
2023-02-16T03:39:27.917Z,111.23
2023-02-16T03:41:57.292Z,109.30
2023-02-16T03:44:25.194Z,111.73
2023-02-16T03:46:52.868Z,114.03
2023-02-16T03:49:20.816Z,112.27
2023-02-16T03:51:48.440Z,112.43
2023-02-16T03:54:15.750Z,111.13
2023-02-16T03:56:43.580Z,104.47
2023-02-16T03:59:10.854Z,101.87
2023-02-16T04:01:38.483Z,104.80
2023-02-16T04:04:05.871Z,106.87
2023-02-16T04:06:33.572Z,125.03
2023-02-16T04:09:01.286Z,149.63
2023-02-16T04:11:47.704Z,130.60
2023-02-16T04:14:15.245Z,120.80
2023-02-16T04:16:42.908Z,119.77
2023-02-16T04:19:11.328Z,143.53
2023-02-16T04:21:39.659Z,161.73
2023-02-16T04:24:07.703Z,165.53
2023-02-16T04:26:35.453Z,188.97
2023-02-16T04:29:03.024Z,217.67
2023-02-16T04:31:30.844Z,174.00
2023-02-16T04:33:58.194Z,185.53
2023-02-16T04:36:25.664Z,167.17
2023-02-16T04:38:52.984Z,204.13
2023-02-16T04:41:20.666Z,183.23
2023-02-16T04:43:48.096Z,222.97
2023-02-16T04:46:15.629Z,241.70
2023-02-16T04:48:43.072Z,248.27
2023-02-16T04:51:10.719Z,146.97
2023-02-16T04:53:38.021Z,198.23
2023-02-16T04:56:09.078Z,142.43
2023-02-16T04:58:36.441Z,117.90
2023-02-16T05:01:04.892Z,127.17
2023-02-16T05:03:32.531Z,121.17
2023-02-16T05:06:00.337Z,139.20
2023-02-16T05:08:27.836Z,128.87
2023-02-16T05:11:13.911Z,124.53
2023-02-16T05:13:59.503Z,117.97
2023-02-16T05:16:27.091Z,127.50
2023-02-16T05:18:56.869Z,123.17
2023-02-16T05:21:31.982Z,121.20
2023-02-16T05:24:11.526Z,115.47
2023-02-16T05:26:40.204Z,114.63
2023-02-16T05:29:08.326Z,119.10
2023-02-16T05:31:36.320Z,111.90
2023-02-16T05:34:04.224Z,110.27
2023-02-16T05:36:32.376Z,108.60
2023-02-16T05:39:02.229Z,106.93
2023-02-16T05:41:29.791Z,103.53
2023-02-16T05:44:00.048Z,104.40
2023-02-16T05:46:29.947Z,103.10
2023-02-16T05:48:57.598Z,104.37
2023-02-16T05:51:25.381Z,108.13
2023-02-16T05:53:52.969Z,109.97
2023-02-16T05:56:21.378Z,110.10
2023-02-16T05:58:49.542Z,106.83
2023-02-16T06:01:18.240Z,107.10
2023-02-16T06:03:46.226Z,105.20
2023-02-16T06:06:14.454Z,106.30
2023-02-16T06:08:41.819Z,110.47
2023-02-16T06:11:29.369Z,114.47
2023-02-16T06:13:58.780Z,107.27
2023-02-16T06:16:28.406Z,102.83
2023-02-16T06:18:56.433Z,104.77
2023-02-16T06:21:25.459Z,104.73
2023-02-16T06:23:53.745Z,101.53
2023-02-16T06:26:21.587Z,100.57
2023-02-16T06:28:48.995Z,102.93
2023-02-16T06:31:16.956Z,100.43
2023-02-16T06:33:45.170Z,103.23
2023-02-16T06:36:12.872Z,98.37
2023-02-16T06:38:40.541Z,99.37
2023-02-16T06:41:08.297Z,96.30
2023-02-16T06:43:35.837Z,94.93
2023-02-16T06:46:04.007Z,99.57
2023-02-16T06:48:32.028Z,99.73
2023-02-16T06:51:00.175Z,93.30
2023-02-16T06:53:27.976Z,95.53
2023-02-16T06:55:55.734Z,93.10
2023-02-16T06:58:23.177Z,92.27
2023-02-16T07:00:51.078Z,95.30
2023-02-16T07:03:18.539Z,99.30
2023-02-16T07:05:49.098Z,101.30
2023-02-16T07:08:16.593Z,97.10
2023-02-16T07:10:50.010Z,99.00
2023-02-16T07:13:18.141Z,94.33
2023-02-16T07:15:46.028Z,102.87
2023-02-16T07:18:13.686Z,112.40
2023-02-16T07:20:41.530Z,151.70
2023-02-16T07:23:09.006Z,138.27
2023-02-16T07:25:37.243Z,128.73
2023-02-16T07:28:04.876Z,124.63
2023-02-16T07:30:32.626Z,115.83
2023-02-16T07:33:00.137Z,112.77
2023-02-16T07:35:28.299Z,106.00
2023-02-16T07:37:55.987Z,107.80
2023-02-16T07:40:23.949Z,103.97
2023-02-16T07:42:51.590Z,95.40
2023-02-16T07:45:19.651Z,100.77
2023-02-16T07:47:46.951Z,114.23
2023-02-16T07:50:14.588Z,110.77
2023-02-16T07:52:42.184Z,108.87
2023-02-16T07:55:11.527Z,106.87
2023-02-16T07:57:40.213Z,102.90
2023-02-16T08:00:09.218Z,98.73
2023-02-16T08:02:41.290Z,94.67
2023-02-16T08:05:09.894Z,97.43
2023-02-16T08:07:37.479Z,98.23
2023-02-16T08:10:07.128Z,93.10
2023-02-16T08:12:34.817Z,88.47
2023-02-16T08:15:03.660Z,97.67
2023-02-16T08:17:31.316Z,90.97
2023-02-16T08:19:59.265Z,74.00
2023-02-16T08:22:26.753Z,75.27
2023-02-16T08:24:54.367Z,74.50
2023-02-16T08:27:21.787Z,76.93
2023-02-16T08:29:49.504Z,71.47
2023-02-16T08:32:16.918Z,72.30
2023-02-16T08:34:44.666Z,71.13
2023-02-16T08:37:15.198Z,66.43
2023-02-16T08:39:43.046Z,67.97
2023-02-16T08:42:13.599Z,69.13
2023-02-16T08:44:42.567Z,68.00
2023-02-16T08:47:11.113Z,63.27
2023-02-16T08:49:39.534Z,59.23
2023-02-16T08:52:07.056Z,58.33
2023-02-16T08:54:34.908Z,60.33
2023-02-16T08:57:03.148Z,57.37
2023-02-16T08:59:31.786Z,51.83
2023-02-16T09:02:00.321Z,52.97
2023-02-16T09:04:29.954Z,55.23
2023-02-16T09:06:58.591Z,55.30
2023-02-16T09:09:27.384Z,53.63
2023-02-16T09:11:54.923Z,50.00
2023-02-16T09:14:23.269Z,47.67
2023-02-16T09:16:50.947Z,49.30
2023-02-16T09:19:21.309Z,47.27
2023-02-16T09:21:56.412Z,45.47
2023-02-16T09:24:24.231Z,43.80
2023-02-16T09:26:52.168Z,43.77
2023-02-16T09:29:21.360Z,42.33
2023-02-16T09:31:49.638Z,41.80
2023-02-16T09:34:20.598Z,41.17
2023-02-16T09:36:48.908Z,40.77
2023-02-16T09:39:17.850Z,41.63
2023-02-16T09:42:18.005Z,39.57
2023-02-16T09:44:58.737Z,41.13
2023-02-16T09:47:31.542Z,40.70
2023-02-16T09:50:38.229Z,41.27
2023-02-16T09:53:22.963Z,40.97
2023-02-16T09:56:04.440Z,40.67
2023-02-16T09:58:49.806Z,42.53
2023-02-16T10:01:41.385Z,40.73
2023-02-16T10:04:18.020Z,40.40
2023-02-16T10:07:04.670Z,38.37
2023-02-16T10:09:33.644Z,36.97
2023-02-16T10:12:11.712Z,37.90
2023-02-16T10:14:46.666Z,37.40
2023-02-16T10:17:28.906Z,38.60
2023-02-16T10:20:13.502Z,40.73
2023-02-16T10:22:58.022Z,40.57
2023-02-16T10:25:37.323Z,40.10
2023-02-16T10:28:30.215Z,38.20
2023-02-16T10:30:58.155Z,36.27
2023-02-16T10:33:52.008Z,37.43
2023-02-16T10:36:48.167Z,36.30
2023-02-16T10:39:41.245Z,37.17
2023-02-16T10:42:28.216Z,37.67
2023-02-16T10:45:03.632Z,34.47
2023-02-16T10:47:40.898Z,36.23
2023-02-16T10:50:24.123Z,35.17
2023-02-16T10:52:56.480Z,37.53
2023-02-16T10:55:24.831Z,37.40
2023-02-16T10:57:56.798Z,34.90
2023-02-16T11:00:48.605Z,34.17
2023-02-16T11:03:16.861Z,33.27
2023-02-16T11:05:44.530Z,34.90
2023-02-16T11:08:13.019Z,32.20
2023-02-16T11:10:51.037Z,34.93
2023-02-16T11:13:32.867Z,34.33
2023-02-16T11:16:07.106Z,36.83
2023-02-16T11:18:36.756Z,34.40
2023-02-16T11:21:07.315Z,33.77
2023-02-16T11:23:43.525Z,34.90
2023-02-16T11:26:11.965Z,34.20
2023-02-16T11:28:48.111Z,33.77
2023-02-16T11:31:24.951Z,32.25
2023-02-16T11:34:06.201Z,31.73
2023-02-16T11:36:37.560Z,33.78
2023-02-16T11:39:14.516Z,34.00
2023-02-16T11:42:20.821Z,32.47
2023-02-16T11:44:54.709Z,31.77
2023-02-16T11:47:35.190Z,31.98
2023-02-16T11:50:24.011Z,33.28
2023-02-16T11:52:54.574Z,33.50
2023-02-16T11:55:36.168Z,33.28
2023-02-16T11:58:17.744Z,31.38
2023-02-16T12:01:10.988Z,32.20
2023-02-16T12:04:00.252Z,33.50
2023-02-16T12:06:49.914Z,31.98
2023-02-16T12:09:45.456Z,30.00
2023-02-16T12:12:20.903Z,29.75
2023-02-16T12:15:35.559Z,34.20
2023-02-16T12:18:20.533Z,30.67
2023-02-16T12:21:05.345Z,30.27
2023-02-16T12:24:09.597Z,30.67
2023-02-16T12:26:47.169Z,33.70
2023-02-16T12:29:23.931Z,31.83
2023-02-16T12:32:33.995Z,29.67
2023-02-16T12:35:13.669Z,30.88
2023-02-16T12:38:04.970Z,30.25
2023-02-16T12:40:51.006Z,30.88
2023-02-16T12:43:39.947Z,32.42
2023-02-16T12:46:16.117Z,30.50
2023-02-16T12:48:50.006Z,31.52
2023-02-16T12:51:22.594Z,31.40
2023-02-16T12:54:11.493Z,32.20
2023-02-16T12:56:45.993Z,30.75
2023-02-16T12:59:21.275Z,32.42
2023-02-16T13:01:52.729Z,33.38
2023-02-16T13:04:58.631Z,32.25
2023-02-16T13:07:35.658Z,34.03
2023-02-16T13:10:41.715Z,32.20
2023-02-16T13:13:12.785Z,34.35
2023-02-16T13:15:52.509Z,35.38
2023-02-16T13:18:30.473Z,33.92
2023-02-16T13:21:09.497Z,37.05
2023-02-16T13:23:49.160Z,35.38
2023-02-16T13:26:18.237Z,37.63
2023-02-16T13:28:49.118Z,37.20
2023-02-16T13:31:36.224Z,37.70
2023-02-16T13:34:28.946Z,37.65
2023-02-16T13:37:16.968Z,34.25
2023-02-16T13:40:06.411Z,34.60
2023-02-16T13:43:13.884Z,35.40
2023-02-16T13:45:44.477Z,36.03
2023-02-16T13:48:23.127Z,33.65
2023-02-16T13:51:05.431Z,36.38
2023-02-16T13:53:40.810Z,37.08
2023-02-16T13:56:22.625Z,35.25
2023-02-16T13:58:53.154Z,36.42
2023-02-16T14:01:36.812Z,38.22
2023-02-16T14:04:14.204Z,36.53
2023-02-16T14:06:43.871Z,36.83
2023-02-16T14:09:14.707Z,36.33
2023-02-16T14:11:59.768Z,39.88
2023-02-16T14:14:31.492Z,39.60
2023-02-16T14:17:18.980Z,36.88
2023-02-16T14:20:09.375Z,40.13
2023-02-16T14:22:46.712Z,40.03
2023-02-16T14:25:23.862Z,35.75
2023-02-16T14:27:59.170Z,37.67
2023-02-16T14:30:39.599Z,37.65
2023-02-16T14:33:13.257Z,37.00
2023-02-16T14:36:17.747Z,36.47
2023-02-16T14:38:48.768Z,37.00
2023-02-16T14:41:23.076Z,35.83
2023-02-16T14:43:55.891Z,36.87
2023-02-16T14:46:47.814Z,37.80
2023-02-16T14:49:38.090Z,39.27
2023-02-16T14:52:43.589Z,39.40
2023-02-16T14:55:38.365Z,39.23
2023-02-16T14:58:16.102Z,39.30
2023-02-16T15:00:54.443Z,38.77
2023-02-16T15:03:25.811Z,37.43
2023-02-16T15:06:02.553Z,40.63
2023-02-16T15:08:37.448Z,38.73
2023-02-16T15:11:25.535Z,40.67
2023-02-16T15:13:54.145Z,38.50
2023-02-16T15:16:23.379Z,39.67
2023-02-16T15:18:55.372Z,39.77
2023-02-16T15:21:28.732Z,42.63
2023-02-16T15:24:01.058Z,40.30
2023-02-16T15:26:38.617Z,42.37
2023-02-16T15:29:27.304Z,41.47
2023-02-16T15:31:56.238Z,41.97
2023-02-16T15:34:35.471Z,39.60
2023-02-16T15:37:24.763Z,40.23
2023-02-16T15:40:15.064Z,43.03
2023-02-16T15:42:46.213Z,44.00
2023-02-16T15:45:29.845Z,43.93
2023-02-16T15:48:30.756Z,45.67
2023-02-16T15:51:09.204Z,56.83
2023-02-16T15:53:51.725Z,55.10
2023-02-16T15:56:28.108Z,49.37
2023-02-16T15:59:02.563Z,44.73
2023-02-16T16:01:35.421Z,44.70
2023-02-16T16:04:19.270Z,47.50
2023-02-16T16:06:48.327Z,47.40
2023-02-16T16:09:26.204Z,46.37
2023-02-16T16:11:57.694Z,46.13
2023-02-16T16:14:26.450Z,47.40
2023-02-16T16:16:54.983Z,44.63
2023-02-16T16:19:32.302Z,47.70
2023-02-16T16:22:00.382Z,48.80
2023-02-16T16:24:35.504Z,49.73
2023-02-16T16:27:07.282Z,47.83
2023-02-16T16:29:42.483Z,47.50
2023-02-16T16:32:26.307Z,49.90
2023-02-16T16:34:54.099Z,50.33
2023-02-16T16:37:37.444Z,49.57
2023-02-16T16:40:27.166Z,49.53
2023-02-16T16:43:04.515Z,52.03
2023-02-16T16:45:46.825Z,53.50
2023-02-16T16:48:29.599Z,51.37
2023-02-16T16:51:32.104Z,51.40
2023-02-16T16:54:33.978Z,54.07
2023-02-16T16:57:03.693Z,51.70
2023-02-16T16:59:31.390Z,54.10
2023-02-16T17:01:58.876Z,53.63
2023-02-16T17:04:28.009Z,54.97
2023-02-16T17:06:55.383Z,57.40
2023-02-16T17:09:23.678Z,54.60
2023-02-16T17:11:53.438Z,56.47
2023-02-16T17:14:27.562Z,59.60
2023-02-16T17:16:56.501Z,60.97
2023-02-16T17:19:30.216Z,60.10
2023-02-16T17:21:59.290Z,64.80
2023-02-16T17:24:28.999Z,64.37
2023-02-16T17:27:00.164Z,62.03
2023-02-16T17:29:29.796Z,56.00
2023-02-16T17:31:57.354Z,58.40
2023-02-16T17:34:29.554Z,56.87
2023-02-16T17:37:10.380Z,56.70
2023-02-16T17:39:40.834Z,58.23
2023-02-16T17:42:13.013Z,54.73
2023-02-16T17:44:41.834Z,58.17
2023-02-16T17:47:16.400Z,58.13
2023-02-16T17:49:45.016Z,57.97
2023-02-16T17:52:14.754Z,61.03
2023-02-16T17:54:46.122Z,58.23
2023-02-16T17:57:15.760Z,54.80
2023-02-16T17:59:44.404Z,60.10
2023-02-16T18:02:14.949Z,60.27
2023-02-16T18:04:45.482Z,57.90
2023-02-16T18:07:15.810Z,58.43
2023-02-16T18:09:45.796Z,60.33
2023-02-16T18:12:16.205Z,59.30
2023-02-16T18:14:45.082Z,57.93
2023-02-16T18:17:14.823Z,60.20
2023-02-16T18:19:44.255Z,60.27
2023-02-16T18:22:13.032Z,61.53
2023-02-16T18:24:40.910Z,60.37
2023-02-16T18:27:10.227Z,61.93
2023-02-16T18:29:38.101Z,61.93
2023-02-16T18:32:06.391Z,61.60
2023-02-16T18:34:35.826Z,63.80
2023-02-16T18:37:04.050Z,63.20
2023-02-16T18:39:32.016Z,68.30
2023-02-16T18:41:59.419Z,61.67
2023-02-16T18:44:27.662Z,62.50
2023-02-16T18:46:55.507Z,61.30
2023-02-16T18:49:24.033Z,63.13
2023-02-16T18:51:51.681Z,62.87
2023-02-16T18:54:19.652Z,61.63
2023-02-16T18:56:47.937Z,61.03
2023-02-16T18:59:16.369Z,61.10
2023-02-16T19:01:44.932Z,60.90
2023-02-16T19:04:13.034Z,60.53
2023-02-16T19:06:40.698Z,69.33
2023-02-16T19:09:23.123Z,74.33
2023-02-16T19:11:50.684Z,69.53
2023-02-16T19:14:19.838Z,63.70
2023-02-16T19:17:15.444Z,65.63
2023-02-16T19:19:48.326Z,60.87
2023-02-16T19:25:22.384Z,61.43
2023-02-16T19:27:52.822Z,62.10
2023-02-16T19:30:24.940Z,61.00
2023-02-16T19:32:53.333Z,61.03
2023-02-16T19:35:21.120Z,61.07
2023-02-16T19:37:49.009Z,58.73
2023-02-16T19:40:18.634Z,58.57
2023-02-16T19:46:33.281Z,57.97
2023-02-16T19:49:02.809Z,60.73
2023-02-16T19:51:32.736Z,62.60
2023-02-16T19:54:02.305Z,64.50
2023-02-16T19:56:31.057Z,65.67
2023-02-16T19:59:00.087Z,63.20
2023-02-16T20:01:29.135Z,63.17
2023-02-16T20:03:57.799Z,64.80
2023-02-16T20:06:31.080Z,64.30
2023-02-16T20:09:01.044Z,64.70
2023-02-16T20:11:31.489Z,57.77
2023-02-16T20:14:02.652Z,60.20
2023-02-16T20:16:32.350Z,60.73
2023-02-16T20:19:01.005Z,58.63
2023-02-16T20:21:31.644Z,59.27
2023-02-16T20:24:05.042Z,57.93
2023-02-16T20:26:39.340Z,55.10
2023-02-16T20:29:10.821Z,54.50
2023-02-16T20:31:49.865Z,57.33
2023-02-16T20:34:25.857Z,57.13
2023-02-16T20:36:56.833Z,56.07
2023-02-16T20:39:26.995Z,56.03
2023-02-16T20:42:01.601Z,55.40
2023-02-16T20:44:31.816Z,54.90
2023-02-16T20:47:04.752Z,53.90
2023-02-16T20:49:34.288Z,55.90
2023-02-16T20:52:05.393Z,57.73
2023-02-16T20:54:38.044Z,57.83
2023-02-16T20:57:24.703Z,57.80
2023-02-16T21:00:01.095Z,54.47
2023-02-16T21:02:31.658Z,56.17
2023-02-16T21:05:00.743Z,58.63
2023-02-16T21:07:29.438Z,55.30
2023-02-16T21:09:57.355Z,56.17
2023-02-16T21:12:25.668Z,52.93
2023-02-16T21:14:53.625Z,53.90
2023-02-16T21:17:22.592Z,61.10
2023-02-16T21:19:50.426Z,57.87
2023-02-16T21:22:19.111Z,55.53
2023-02-16T21:24:46.819Z,52.53
2023-02-16T21:27:15.686Z,56.43
2023-02-16T21:29:43.316Z,54.37
2023-02-16T21:32:11.523Z,55.37
2023-02-16T21:34:39.022Z,55.67
2023-02-16T21:37:08.472Z,53.60
2023-02-16T21:39:55.949Z,57.43
2023-02-16T21:42:25.187Z,54.63
2023-02-16T21:45:12.600Z,53.77
2023-02-16T21:48:00.716Z,52.67
2023-02-16T21:50:29.774Z,60.53
2023-02-16T21:52:58.359Z,57.97
2023-02-16T21:55:44.730Z,53.60
2023-02-16T21:58:13.030Z,51.53
2023-02-16T22:00:41.644Z,53.53
2023-02-16T22:03:11.381Z,54.97
2023-02-16T22:05:39.492Z,58.00
2023-02-16T22:08:07.599Z,57.13
2023-02-16T22:10:36.024Z,57.23
2023-02-16T22:13:04.269Z,56.47
2023-02-16T22:15:32.549Z,57.30
2023-02-16T22:18:00.677Z,55.80
2023-02-16T22:20:29.971Z,58.70
2023-02-16T22:22:59.380Z,59.43
2023-02-16T22:25:27.931Z,58.93
2023-02-16T22:27:56.113Z,56.63
2023-02-16T22:30:24.099Z,57.80
2023-02-16T22:32:52.295Z,54.30
2023-02-16T22:35:19.764Z,53.97
2023-02-16T22:37:47.788Z,55.13
2023-02-16T22:40:15.428Z,56.33
2023-02-16T22:42:43.313Z,57.43
2023-02-16T22:45:11.060Z,54.97
2023-02-16T22:47:39.168Z,56.53
2023-02-16T22:50:07.350Z,54.67
2023-02-16T22:52:37.330Z,55.30
2023-02-16T22:55:06.125Z,54.67
2023-02-16T22:57:38.232Z,53.00
2023-02-16T23:00:13.477Z,53.90
2023-02-16T23:02:41.538Z,56.33
2023-02-16T23:05:09.462Z,56.03
2023-02-16T23:07:37.908Z,55.27
2023-02-16T23:10:05.968Z,58.20
2023-02-16T23:12:33.967Z,54.80
2023-02-16T23:15:01.602Z,57.30
2023-02-16T23:17:29.589Z,56.57
2023-02-16T23:19:57.386Z,57.20
2023-02-16T23:22:25.700Z,56.40
2023-02-16T23:25:13.437Z,56.90
2023-02-16T23:27:41.448Z,55.87
2023-02-16T23:30:09.082Z,53.00
2023-02-16T23:32:36.789Z,56.10
2023-02-16T23:35:04.757Z,56.33
2023-02-16T23:37:32.954Z,55.07
2023-02-16T23:40:00.490Z,53.43
2023-02-16T23:42:28.552Z,55.27
2023-02-16T23:44:56.288Z,54.03
2023-02-16T23:47:26.511Z,53.37
2023-02-16T23:49:55.393Z,57.40
2023-02-16T23:52:23.533Z,54.97
2023-02-16T23:54:51.239Z,53.27
2023-02-16T23:57:19.496Z,50.50
2023-02-16T23:59:47.316Z,50.27
